createdAt,value
2019-04-20T00:01:48.370Z,7.76
2019-04-20T00:04:23.379Z,7.73
2019-04-20T00:06:51.348Z,7.70
2019-04-20T00:09:24.630Z,7.70
2019-04-20T00:12:01.544Z,7.73
2019-04-20T00:14:26.111Z,7.71
2019-04-20T00:16:51.139Z,7.72
2019-04-20T00:19:26.222Z,7.70
2019-04-20T00:22:01.527Z,7.70
2019-04-20T00:24:33.524Z,7.68
2019-04-20T00:27:22.432Z,7.66
2019-04-20T00:29:50.479Z,7.67
2019-04-20T00:32:12.518Z,7.68
2019-04-20T00:34:37.202Z,7.63
2019-04-20T00:37:05.178Z,7.62
2019-04-20T00:39:34.068Z,7.61
2019-04-20T00:42:06.615Z,7.60
2019-04-20T00:44:38.089Z,7.56
2019-04-20T00:47:18.120Z,7.50
2019-04-20T00:49:50.946Z,7.46
2019-04-20T00:54:37.271Z,7.38
2019-04-20T00:57:20.368Z,7.37
2019-04-20T01:00:03.546Z,7.39
2019-04-20T01:02:20.987Z,7.31
2019-04-20T01:05:02.169Z,7.34
2019-04-20T01:07:32.098Z,7.29
2019-04-20T01:10:06.957Z,7.27
2019-04-20T01:12:40.486Z,7.27
2019-04-20T01:15:16.686Z,7.23
2019-04-20T01:17:41.705Z,7.25
2019-04-20T01:20:11.357Z,7.24
2019-04-20T01:22:49.511Z,7.20
2019-04-20T01:25:19.167Z,7.20
2019-04-20T01:28:01.953Z,7.20
2019-04-20T01:30:22.534Z,7.19
2019-04-20T01:33:00.475Z,7.16
2019-04-20T01:35:31.946Z,7.16
2019-04-20T01:40:16.977Z,7.17
2019-04-20T01:42:46.764Z,7.18
2019-04-20T01:45:25.188Z,7.20
2019-04-20T01:47:52.322Z,7.19
2019-04-20T01:50:22.659Z,7.17
2019-04-20T01:52:58.198Z,7.18
2019-04-20T01:55:38.665Z,7.16
2019-04-20T01:58:17.568Z,7.16
2019-04-20T02:00:51.185Z,7.13
2019-04-20T02:03:52.466Z,7.15
2019-04-20T02:06:23.426Z,7.14
2019-04-20T02:08:58.230Z,7.11
2019-04-20T02:11:29.458Z,7.09
2019-04-20T02:13:57.337Z,7.08
2019-04-20T02:16:33.077Z,7.05
2019-04-20T02:19:10.951Z,7.07
2019-04-20T02:21:45.001Z,7.07
2019-04-20T02:24:00.599Z,7.06
2019-04-20T02:26:26.504Z,7.07
2019-04-20T02:29:21.787Z,7.03
2019-04-20T02:32:10.078Z,7.03
2019-04-20T02:34:59.783Z,7.03
2019-04-20T02:37:56.599Z,7.03
2019-04-20T02:40:09.180Z,6.98
2019-04-20T02:42:44.706Z,6.93
2019-04-20T02:45:18.694Z,6.93
2019-04-20T02:50:15.687Z,6.86
2019-04-20T02:57:47.830Z,6.82
2019-04-20T03:00:24.048Z,6.80
2019-04-20T03:02:30.023Z,6.77
2019-04-20T03:04:56.073Z,6.72
2019-04-20T03:07:31.627Z,6.68
2019-04-20T03:10:06.561Z,6.65
2019-04-20T03:12:38.863Z,6.64
2019-04-20T03:15:02.867Z,6.62
2019-04-20T03:17:38.431Z,6.55
2019-04-20T03:20:03.083Z,6.54
2019-04-20T03:23:05.142Z,6.53
2019-04-20T03:25:17.890Z,6.52
2019-04-20T03:27:59.282Z,6.50
2019-04-20T03:33:58.395Z,6.43
2019-04-20T03:36:12.477Z,6.40
2019-04-20T03:38:34.826Z,6.35
2019-04-20T03:40:56.658Z,6.34
2019-04-20T03:43:12.208Z,6.31
2019-04-20T03:45:50.634Z,6.31
2019-04-20T03:48:32.252Z,6.29
2019-04-20T03:51:06.107Z,6.28
2019-04-20T03:53:37.976Z,6.24
2019-04-20T03:56:14.054Z,6.22
2019-04-20T03:58:52.051Z,6.18
2019-04-20T04:02:20.151Z,6.18
2019-04-20T04:04:34.506Z,6.14
2019-04-20T04:06:53.044Z,6.13
2019-04-20T04:09:29.207Z,6.12
2019-04-20T04:12:03.802Z,6.08
2019-04-20T04:14:21.843Z,6.05
2019-04-20T04:16:54.807Z,6.03
2019-04-20T04:19:28.459Z,6.03
2019-04-20T04:22:11.151Z,6.01
2019-04-20T04:24:34.431Z,6.06
2019-04-20T04:27:09.180Z,6.07
2019-04-20T04:29:47.110Z,6.11
2019-04-20T04:32:27.071Z,6.17
2019-04-20T04:34:44.399Z,6.33
2019-04-20T04:37:17.926Z,6.45
2019-04-20T04:39:49.045Z,6.66
2019-04-20T04:42:22.594Z,6.86
2019-04-20T04:44:44.804Z,7.08
2019-04-20T04:47:06.336Z,7.14
2019-04-20T04:49:36.681Z,7.20
2019-04-20T04:52:07.886Z,7.33
2019-04-20T04:54:43.840Z,7.73
2019-04-20T04:57:05.308Z,8.59
2019-04-20T04:59:34.470Z,9.72
2019-04-20T05:02:03.520Z,10.83
2019-04-20T05:05:21.957Z,11.88
2019-04-20T05:07:46.455Z,12.66
2019-04-20T05:10:01.245Z,13.41
2019-04-20T05:12:33.423Z,14.18
2019-04-20T05:15:10.456Z,14.72
2019-04-20T05:17:52.704Z,15.35
2019-04-20T05:20:23.059Z,15.25
2019-04-20T05:23:00.346Z,15.70
2019-04-20T05:25:57.010Z,16.17
2019-04-20T05:28:18.066Z,16.48
2019-04-20T05:30:42.695Z,16.77
2019-04-20T05:33:11.631Z,17.08
2019-04-20T05:36:01.909Z,17.36
2019-04-20T05:38:37.059Z,17.44
2019-04-20T05:40:55.739Z,17.45
2019-04-20T05:43:47.207Z,17.56
2019-04-20T05:46:22.049Z,17.58
2019-04-20T05:48:50.958Z,18.03
2019-04-20T05:51:26.335Z,17.68
2019-04-20T05:53:52.092Z,17.60
2019-04-20T05:56:29.158Z,17.71
2019-04-20T05:58:56.605Z,17.93
2019-04-20T06:01:30.504Z,17.98
2019-04-20T06:03:53.898Z,18.47
2019-04-20T06:06:27.662Z,18.65
2019-04-20T06:08:59.964Z,18.97
2019-04-20T06:11:26.611Z,19.24
2019-04-20T06:14:08.076Z,19.72
2019-04-20T06:16:56.848Z,19.87
2019-04-20T06:19:30.974Z,19.78
2019-04-20T06:22:10.338Z,19.75
2019-04-20T06:24:47.854Z,19.13
2019-04-20T06:27:10.353Z,19.75
2019-04-20T06:29:43.926Z,19.98
2019-04-20T06:32:21.195Z,20.00
2019-04-20T06:34:55.892Z,19.73
2019-04-20T06:37:13.533Z,20.04
2019-04-20T06:42:15.362Z,19.75
2019-04-20T06:44:48.199Z,19.56
2019-04-20T06:47:22.761Z,20.35
2019-04-20T06:49:42.426Z,20.44
2019-04-20T06:55:02.771Z,20.48
2019-04-20T06:57:38.485Z,20.82
2019-04-20T07:00:07.158Z,20.25
2019-04-20T07:02:41.483Z,20.79
2019-04-20T07:05:12.802Z,20.75
2019-04-20T07:07:45.104Z,20.31
2019-04-20T07:10:13.337Z,19.53
2019-04-20T07:16:40.843Z,19.25
2019-04-20T07:19:13.064Z,18.70
2019-04-20T07:24:14.149Z,18.31
2019-04-20T07:26:37.365Z,18.49
2019-04-20T07:29:07.118Z,18.43
2019-04-20T07:31:36.044Z,18.08
2019-04-20T07:34:12.952Z,17.94
2019-04-20T07:36:40.529Z,18.00
2019-04-20T07:39:14.725Z,17.98
2019-04-20T07:42:00.369Z,17.85
2019-04-20T07:44:11.867Z,17.63
2019-04-20T07:46:54.545Z,16.95
2019-04-20T07:49:16.336Z,16.30
2019-04-20T07:51:28.252Z,15.84
2019-04-20T07:54:24.517Z,15.37
2019-04-20T07:56:50.435Z,15.20
2019-04-20T07:59:03.663Z,14.98
2019-04-20T08:02:00.606Z,15.03
2019-04-20T08:04:28.815Z,14.87
2019-04-20T08:06:47.019Z,15.12
2019-04-20T08:09:21.963Z,15.16
2019-04-20T08:12:11.726Z,15.21
2019-04-20T08:14:42.410Z,15.60
2019-04-20T08:17:20.379Z,15.77
2019-04-20T08:19:41.129Z,16.31
2019-04-20T08:22:16.833Z,16.73
2019-04-20T08:24:37.174Z,17.02
2019-04-20T08:27:01.074Z,17.05
2019-04-20T08:29:45.046Z,16.70
2019-04-20T08:32:46.789Z,16.48
2019-04-20T08:35:26.862Z,16.36
2019-04-20T08:38:14.577Z,16.51
2019-04-20T08:40:25.466Z,16.33
2019-04-20T08:43:02.397Z,16.26
2019-04-20T08:45:31.620Z,16.29
2019-04-20T08:48:09.774Z,16.31
2019-04-20T08:50:27.056Z,16.28
2019-04-20T08:53:12.354Z,16.41
2019-04-20T08:55:29.833Z,16.45
2019-04-20T08:57:40.458Z,16.57
2019-04-20T09:00:11.242Z,16.53
2019-04-20T09:02:41.344Z,16.57
2019-04-20T09:05:24.918Z,16.68
2019-04-20T09:07:55.368Z,16.87
2019-04-20T09:10:34.357Z,16.64
2019-04-20T09:12:59.706Z,16.44
2019-04-20T09:15:16.823Z,16.54
2019-04-20T09:17:59.102Z,16.68
2019-04-20T09:20:36.571Z,16.70
2019-04-20T09:23:16.990Z,16.74
2019-04-20T09:26:05.919Z,16.84
2019-04-20T09:28:41.753Z,16.68
2019-04-20T09:31:22.622Z,16.86
2019-04-20T09:34:20.376Z,16.68
2019-04-20T09:36:51.597Z,16.68
2019-04-20T09:39:43.979Z,16.69
2019-04-20T09:42:20.398Z,16.57
2019-04-20T09:44:54.306Z,16.70
2019-04-20T09:47:29.531Z,17.01
2019-04-20T09:50:02.708Z,16.77
2019-04-20T09:52:39.903Z,17.07
2019-04-20T09:55:07.875Z,17.07
2019-04-20T09:57:43.693Z,17.02
2019-04-20T10:00:13.359Z,17.40
2019-04-20T10:02:30.966Z,17.42
2019-04-20T10:04:57.740Z,17.56
2019-04-20T10:07:32.523Z,17.90
2019-04-20T10:09:57.932Z,17.75
2019-04-20T10:12:27.125Z,17.82
2019-04-20T10:14:58.510Z,18.08
2019-04-20T10:17:29.880Z,18.13
2019-04-20T10:19:57.823Z,17.69
2019-04-20T10:22:26.892Z,17.91
2019-04-20T10:24:57.123Z,17.95
2019-04-20T10:27:26.545Z,18.00
2019-04-20T10:29:55.702Z,18.12
2019-04-20T10:32:32.624Z,18.10
2019-04-20T10:34:56.820Z,18.15
2019-04-20T10:37:29.559Z,18.17
2019-04-20T10:39:58.618Z,17.90
2019-04-20T10:42:28.142Z,18.04
2019-04-20T10:44:59.425Z,18.03
2019-04-20T10:47:29.387Z,18.31
2019-04-20T10:49:58.952Z,18.15
2019-04-20T10:52:27.978Z,18.07
2019-04-20T10:54:57.034Z,18.30
2019-04-20T10:57:26.122Z,18.21
2019-04-20T10:59:55.449Z,18.13
2019-04-20T11:02:25.863Z,18.07
2019-04-20T11:04:54.998Z,18.10
2019-04-20T11:07:24.102Z,18.30
2019-04-20T11:10:05.268Z,18.00
2019-04-20T11:12:24.223Z,18.21
2019-04-20T11:14:54.498Z,18.19
2019-04-20T11:17:24.691Z,17.86
2019-04-20T11:19:55.013Z,17.92
2019-04-20T11:22:24.219Z,17.88
2019-04-20T11:24:54.312Z,17.73
2019-04-20T11:27:23.682Z,17.95
2019-04-20T11:29:53.997Z,17.68
2019-04-20T11:32:24.213Z,17.61
2019-04-20T11:34:53.407Z,17.84
2019-04-20T11:37:22.755Z,17.97
2019-04-20T11:39:52.885Z,17.95
2019-04-20T11:42:22.094Z,18.07
2019-04-20T11:44:52.830Z,18.04
2019-04-20T11:47:22.375Z,18.09
2019-04-20T11:49:51.608Z,18.33
2019-04-20T11:52:22.913Z,18.45
2019-04-20T11:54:52.638Z,18.16
2019-04-20T11:57:21.894Z,18.35
2019-04-20T11:59:50.917Z,18.33
2019-04-20T12:02:40.222Z,18.31
2019-04-20T12:05:21.386Z,18.39
2019-04-20T12:07:56.561Z,18.47
2019-04-20T12:10:27.781Z,18.22
2019-04-20T12:12:57.536Z,18.59
2019-04-20T12:15:27.089Z,18.45
2019-04-20T12:17:56.146Z,18.13
2019-04-20T12:20:26.866Z,18.40
2019-04-20T12:22:56.045Z,18.53
2019-04-20T12:25:25.960Z,18.64
2019-04-20T12:27:57.393Z,18.59
2019-04-20T12:30:26.175Z,18.61
2019-04-20T12:32:59.748Z,18.69
2019-04-20T12:35:26.650Z,18.54
2019-04-20T12:37:56.911Z,18.42
2019-04-20T12:40:26.420Z,18.24
2019-04-20T12:42:55.499Z,18.31
2019-04-20T12:45:25.939Z,18.57
2019-04-20T12:47:55.558Z,18.76
2019-04-20T12:50:25.692Z,19.03
2019-04-20T12:52:54.820Z,19.16
2019-04-20T12:55:23.940Z,19.30
2019-04-20T12:57:52.961Z,19.02
2019-04-20T13:00:25.969Z,19.20
2019-04-20T13:02:55.647Z,19.17
2019-04-20T13:05:25.581Z,18.91
2019-04-20T13:07:58.954Z,18.98
2019-04-20T13:10:25.535Z,18.89
2019-04-20T13:13:30.324Z,18.97
2019-04-20T13:16:08.209Z,19.11
2019-04-20T13:18:59.386Z,19.01
2019-04-20T13:21:29.261Z,19.09
2019-04-20T13:23:58.691Z,18.97
2019-04-20T13:26:28.954Z,19.05
2019-04-20T13:28:59.180Z,19.05
2019-04-20T13:31:29.674Z,19.10
2019-04-20T13:33:59.176Z,19.13
2019-04-20T13:36:28.592Z,18.99
2019-04-20T13:38:59.348Z,18.96
2019-04-20T13:41:29.639Z,18.99
2019-04-20T13:44:01.243Z,19.11
2019-04-20T13:46:29.573Z,19.43
2019-04-20T13:48:58.717Z,19.34
2019-04-20T13:51:28.704Z,19.32
2019-04-20T13:53:57.864Z,19.04
2019-04-20T13:56:29.923Z,19.12
2019-04-20T13:59:03.760Z,19.04
2019-04-20T14:01:54.997Z,18.76
2019-04-20T14:04:30.715Z,18.95
2019-04-20T14:07:01.720Z,18.96
2019-04-20T14:09:30.910Z,19.09
2019-04-20T14:12:11.866Z,19.45
2019-04-20T14:14:31.043Z,19.27
2019-04-20T14:17:01.185Z,19.04
2019-04-20T14:19:31.382Z,19.05
2019-04-20T14:22:01.980Z,19.04
2019-04-20T14:24:31.287Z,19.10
2019-04-20T14:27:01.158Z,19.36
2019-04-20T14:29:30.639Z,19.32
2019-04-20T14:32:02.315Z,19.30
2019-04-20T14:34:31.121Z,19.35
2019-04-20T14:37:00.378Z,19.12
2019-04-20T14:39:30.253Z,19.07
2019-04-20T15:34:31.134Z,40.06
2019-04-20T15:37:00.289Z,30.15
2019-04-20T15:39:30.479Z,24.84
2019-04-20T15:41:59.668Z,21.77
2019-04-20T15:44:29.282Z,19.91
2019-04-20T15:46:59.364Z,18.89
2019-04-20T15:49:29.608Z,18.20
2019-04-20T15:51:59.706Z,17.79
2019-04-20T15:54:29.572Z,17.52
2019-04-20T15:57:02.378Z,17.22
2019-04-20T15:59:30.622Z,17.15
2019-04-20T16:02:05.147Z,17.07
2019-04-20T16:05:00.604Z,17.02
2019-04-20T16:07:32.982Z,17.04
2019-04-20T16:10:01.145Z,17.03
2019-04-20T16:12:31.087Z,16.95
2019-04-20T16:15:00.110Z,16.86
2019-04-20T16:17:35.945Z,16.91
2019-04-20T16:20:06.465Z,16.92
2019-04-20T16:22:31.088Z,16.94
2019-04-20T16:25:05.525Z,16.92
2019-04-20T16:27:38.266Z,16.90
2019-04-20T16:30:09.480Z,16.91
2019-04-20T16:32:39.018Z,16.94
2019-04-20T16:35:08.856Z,16.91
2019-04-20T16:37:38.430Z,16.93
2019-04-20T16:40:09.856Z,16.93
2019-04-20T16:42:40.958Z,16.90
2019-04-20T16:45:09.842Z,16.96
2019-04-20T16:47:39.924Z,16.98
2019-04-20T16:50:10.988Z,17.01
2019-04-20T16:52:41.075Z,16.96
2019-04-20T16:55:11.692Z,16.94
2019-04-20T16:57:41.717Z,16.94
2019-04-20T17:00:13.711Z,16.94
2019-04-20T17:02:42.778Z,16.96
2019-04-20T17:05:13.403Z,16.94
2019-04-20T17:07:44.893Z,16.99
2019-04-20T17:10:16.198Z,17.00
2019-04-20T17:12:46.033Z,16.97
2019-04-20T17:15:15.901Z,17.03
2019-04-20T17:17:46.769Z,17.05
2019-04-20T17:20:17.613Z,17.04
2019-04-20T17:22:46.770Z,17.04
2019-04-20T17:25:16.449Z,17.11
2019-04-20T17:28:22.958Z,17.18
2019-04-20T17:31:09.206Z,17.25
2019-04-20T17:33:53.447Z,17.31
2019-04-20T17:36:18.793Z,17.34
2019-04-20T17:38:48.516Z,17.37
2019-04-20T17:41:39.178Z,17.40
2019-04-20T17:44:07.188Z,17.42
2019-04-20T17:46:28.733Z,17.45
2019-04-20T17:49:07.504Z,17.48
2019-04-20T17:51:46.065Z,17.49
2019-04-20T17:54:08.445Z,17.51
2019-04-20T17:56:40.270Z,17.53
2019-04-20T17:59:10.361Z,17.55
2019-04-20T18:02:11.843Z,17.56
2019-04-20T18:05:07.170Z,17.59
2019-04-20T18:07:37.406Z,17.61
2019-04-20T18:10:03.062Z,17.61
2019-04-20T18:12:25.205Z,17.62
2019-04-20T18:14:53.534Z,17.64
2019-04-20T18:17:56.514Z,17.66
2019-04-20T18:20:18.941Z,17.68
2019-04-20T18:22:54.776Z,17.69
2019-04-20T18:25:40.063Z,17.69
2019-04-20T18:28:04.388Z,17.70
2019-04-20T18:30:43.618Z,17.70
2019-04-20T18:33:05.487Z,17.69
2019-04-20T18:35:40.394Z,17.68
2019-04-20T18:38:10.989Z,17.66
2019-04-20T18:40:44.625Z,17.65
2019-04-20T18:43:13.398Z,17.63
2019-04-20T18:45:58.802Z,17.61
2019-04-20T18:48:33.484Z,17.60
2019-04-20T18:50:42.418Z,17.60
2019-04-20T18:53:16.650Z,17.58
2019-04-20T18:55:48.200Z,17.56
2019-04-20T18:58:13.334Z,17.55
2019-04-20T19:00:47.317Z,17.54
2019-04-20T19:03:21.133Z,17.53
2019-04-20T19:05:45.066Z,17.52
2019-04-20T19:08:15.782Z,17.50
2019-04-20T19:10:52.221Z,17.48
2019-04-20T19:13:28.678Z,17.48
2019-04-20T19:16:16.628Z,17.47
2019-04-20T19:18:59.421Z,17.46
2019-04-20T19:21:16.990Z,17.45
2019-04-20T19:23:55.958Z,17.46
2019-04-20T19:26:21.113Z,17.44
2019-04-20T19:28:53.815Z,17.43
2019-04-20T19:31:35.212Z,17.42
2019-04-20T19:34:16.899Z,17.43
2019-04-20T19:36:33.075Z,17.42
2019-04-20T19:39:05.830Z,17.42
2019-04-20T19:41:32.133Z,17.41
2019-04-20T19:44:04.025Z,17.41
2019-04-20T19:46:50.684Z,17.40
2019-04-20T19:49:04.027Z,17.41
2019-04-20T19:51:48.087Z,17.38
2019-04-20T19:54:22.777Z,17.38
2019-04-20T19:56:41.466Z,17.37
2019-04-20T19:59:11.003Z,17.37
2019-04-20T20:01:29.487Z,17.37
2019-04-20T20:04:02.241Z,17.37
2019-04-20T20:06:41.341Z,17.36
2019-04-20T20:09:05.852Z,17.37
2019-04-20T20:11:36.403Z,17.36
2019-04-20T20:14:05.418Z,17.37
2019-04-20T20:16:54.787Z,17.38
2019-04-20T20:19:12.173Z,17.38
2019-04-20T20:21:48.312Z,17.42
2019-04-20T20:24:06.119Z,17.44
2019-04-20T20:26:40.635Z,17.45
2019-04-20T20:29:18.630Z,17.46
2019-04-20T20:31:52.990Z,17.50
2019-04-20T20:34:16.709Z,17.53
2019-04-20T20:36:47.198Z,17.55
2019-04-20T20:39:19.318Z,17.58
2019-04-20T20:41:52.894Z,17.60
2019-04-20T20:44:25.960Z,17.61
2019-04-20T20:46:58.743Z,17.63
2019-04-20T20:49:35.583Z,17.65
2019-04-20T20:52:06.829Z,17.66
2019-04-20T20:54:29.598Z,17.68
2019-04-20T20:56:56.846Z,17.69
2019-04-20T20:59:30.388Z,17.72
2019-04-20T21:02:00.570Z,17.73
2019-04-20T21:04:19.759Z,17.73
2019-04-20T21:06:48.777Z,17.75
2019-04-20T21:09:18.577Z,17.77
2019-04-20T21:11:51.952Z,17.78
2019-04-20T21:14:21.969Z,17.79
2019-04-20T21:17:00.312Z,17.80
2019-04-20T21:19:35.552Z,17.81
2019-04-20T21:21:59.999Z,17.81
2019-04-20T21:24:26.827Z,17.83
2019-04-20T21:27:02.775Z,17.84
2019-04-20T21:29:35.593Z,17.85
2019-04-20T21:32:05.186Z,17.85
2019-04-20T21:34:29.252Z,17.88
2019-04-20T21:37:03.491Z,17.87
2019-04-20T21:39:39.124Z,17.89
2019-04-20T21:42:05.425Z,17.89
2019-04-20T21:44:35.738Z,17.91
2019-04-20T21:47:03.239Z,17.90
2019-04-20T21:49:46.209Z,17.91
2019-04-20T21:52:10.619Z,17.93
2019-04-20T21:54:34.184Z,17.93
2019-04-20T21:57:07.272Z,17.93
2019-04-20T21:59:41.992Z,17.95
2019-04-20T22:02:15.050Z,17.94
2019-04-20T22:04:37.584Z,17.95
2019-04-20T22:07:07.996Z,17.95
2019-04-20T22:09:43.362Z,17.97
2019-04-20T22:12:07.931Z,17.98
2019-04-20T22:14:37.627Z,17.98
2019-04-20T22:17:07.811Z,17.98
2019-04-20T22:19:47.448Z,17.99
2019-04-20T22:22:18.475Z,18.00
2019-04-20T22:24:51.994Z,18.01
2019-04-20T22:27:16.489Z,18.01
2019-04-20T22:29:39.990Z,18.01
2019-04-20T22:32:12.846Z,18.02
2019-04-20T22:34:39.867Z,18.03
2019-04-20T22:37:15.236Z,18.02
2019-04-20T22:39:47.779Z,18.04
2019-04-20T22:42:16.133Z,18.03
2019-04-20T22:44:47.908Z,18.04
2019-04-20T22:47:22.555Z,18.05
2019-04-20T22:49:59.757Z,18.05
2019-04-20T22:52:30.460Z,18.05
2019-04-20T22:55:12.815Z,18.05
2019-04-20T22:57:31.865Z,18.06
2019-04-20T22:59:56.802Z,18.06
2019-04-20T23:02:22.943Z,18.06
2019-04-20T23:04:50.908Z,18.06
2019-04-20T23:07:20.947Z,18.06
2019-04-20T23:09:54.150Z,18.07
2019-04-20T23:12:23.770Z,18.08
2019-04-20T23:14:52.338Z,18.08
2019-04-20T23:17:27.214Z,18.08
2019-04-20T23:19:56.217Z,18.08
2019-04-20T23:22:33.864Z,18.11
2019-04-20T23:24:55.290Z,18.10
2019-04-20T23:27:29.364Z,18.08
2019-04-20T23:29:55.333Z,18.10
2019-04-20T23:32:26.873Z,18.08
2019-04-20T23:35:02.287Z,18.10
2019-04-20T23:37:31.536Z,18.11
2019-04-20T23:39:57.918Z,18.11
2019-04-20T23:42:37.646Z,18.12
2019-04-20T23:45:31.651Z,18.11
2019-04-20T23:48:03.045Z,18.11
2019-04-20T23:50:47.547Z,18.12
2019-04-20T23:53:18.214Z,18.12
2019-04-20T23:55:31.803Z,18.12
2019-04-20T23:58:06.424Z,18.12
